Three Notch, Alabama
Current Conditions -  °F | °C
As of 10:58 AM on Sunday 21 Dec 2014 (Local Time) from KEUF Reporting Station
Overcast Overcast  
Wind Chill: 56°   Ceiling: 1200
Heat Index: 56°   Visibility: 10mi
Dew Point: 50°   Wind: 6mph
Humidity: 80%   Direction: NA
Pressure: 30.13"   Gusts: NA
Location:  32.1076°N, 85.5256°W
Report Text: KEUF 211658Z AUTO VRB05KT 10SM OVC012 13/10 A3013 RMK AO2 SLP200 T01330100
Loading
Personal Weather Stations






























Interactive Weather Map New forecast layout! Learn more

10-Day Weather Forecast

Advertisements
Track Severe Weather on mobile